Terminal Aerodrome Forecast
Issued by NWS Bismarck, ND

Home | Current Version | Previous Version | Text Only | Print | Product List | Glossary Off
Versions: 1 2 3 4 5 6 7 8 9 10 11 12 13 14 15 16

610
FTUS43 KBIS 271741
TAFISN
TAF
KISN 271741Z 2718/2818 08005KT P6SM VCSH BKN060
     FM280200 06004KT P6SM BKN080
     FM281200 09005KT P6SM SCT025 BKN050
     FM281500 13006KT P6SM BKN040=

USA.gov is the U.S. government's official web portal to all federal, state and local government web resources and services.